createdAt,value
2018-12-17T00:01:24.724Z,2.00
2018-12-17T00:06:38.013Z,1.87
2018-12-17T00:09:07.966Z,2.07
2018-12-17T00:11:36.853Z,1.80
2018-12-17T00:14:05.417Z,1.77
2018-12-17T00:16:34.124Z,1.63
2018-12-17T00:19:02.673Z,1.80
2018-12-17T00:21:31.313Z,1.67
2018-12-17T00:24:00.002Z,1.60
2018-12-17T00:26:28.644Z,1.70
2018-12-17T00:28:57.301Z,1.70
2018-12-17T00:31:25.846Z,1.83
2018-12-17T00:33:54.487Z,1.50
2018-12-17T00:36:23.207Z,1.60
2018-12-17T00:38:51.843Z,1.80
2018-12-17T00:41:20.410Z,1.70
2018-12-17T00:43:49.114Z,1.63
2018-12-17T00:46:17.894Z,1.60
2018-12-17T00:48:46.581Z,1.93
2018-12-17T00:51:15.414Z,1.40
2018-12-17T00:53:44.249Z,1.60
2018-12-17T00:56:12.797Z,1.50
2018-12-17T00:58:41.518Z,1.60
2018-12-17T01:01:10.077Z,1.53
2018-12-17T01:03:38.787Z,1.40
2018-12-17T01:06:07.423Z,1.70
2018-12-17T01:08:36.022Z,1.80
2018-12-17T01:11:04.693Z,1.60
2018-12-17T01:13:33.450Z,1.40
2018-12-17T01:16:06.135Z,1.50
2018-12-17T01:18:34.926Z,1.40
2018-12-17T01:21:03.561Z,1.30
2018-12-17T01:23:32.196Z,1.57
2018-12-17T01:26:01.088Z,1.50
2018-12-17T01:28:29.788Z,1.20
2018-12-17T01:30:58.497Z,1.47
2018-12-17T01:33:27.094Z,1.77
2018-12-17T01:35:55.766Z,1.40
2018-12-17T01:38:24.324Z,1.20
2018-12-17T01:40:53.038Z,1.30
2018-12-17T01:43:21.673Z,2.07
2018-12-17T01:45:50.308Z,1.30
2018-12-17T01:48:18.945Z,1.50
2018-12-17T01:50:47.582Z,1.40
2018-12-17T01:53:16.215Z,1.10
2018-12-17T01:55:44.850Z,1.20
2018-12-17T01:58:13.467Z,1.50
2018-12-17T02:00:42.122Z,1.30
2018-12-17T02:03:10.952Z,1.20
2018-12-17T02:05:39.511Z,1.20
2018-12-17T02:08:08.151Z,1.50
2018-12-17T02:10:36.860Z,1.37
2018-12-17T02:13:05.495Z,1.50
2018-12-17T02:15:34.045Z,1.40
2018-12-17T02:18:02.739Z,1.40
2018-12-17T02:20:31.401Z,1.20
2018-12-17T02:22:59.965Z,1.10
2018-12-17T02:25:28.671Z,1.30
2018-12-17T02:27:57.221Z,1.40
2018-12-17T02:30:25.871Z,1.43
2018-12-17T02:32:54.551Z,1.13
2018-12-17T02:35:25.136Z,1.10
2018-12-17T02:37:54.209Z,1.00
2018-12-17T02:40:22.821Z,0.90
2018-12-17T02:42:51.480Z,0.90
2018-12-17T02:45:19.981Z,0.90
2018-12-17T02:47:48.853Z,1.00
2018-12-17T02:50:17.583Z,1.13
2018-12-17T02:52:46.096Z,1.10
2018-12-17T02:55:14.807Z,0.73
2018-12-17T02:57:43.354Z,0.80
2018-12-17T03:00:12.319Z,0.90
2018-12-17T03:02:40.877Z,1.10
2018-12-17T03:05:10.839Z,1.07
2018-12-17T03:07:39.481Z,1.00
2018-12-17T03:10:08.435Z,0.90
2018-12-17T03:12:37.070Z,1.10
2018-12-17T03:15:07.116Z,1.13
2018-12-17T03:17:35.815Z,1.07
2018-12-17T03:20:05.369Z,0.80
2018-12-17T03:22:34.094Z,1.10
2018-12-17T03:25:02.737Z,0.77
2018-12-17T03:27:31.440Z,0.83
2018-12-17T03:30:00.088Z,1.10
2018-12-17T03:32:28.632Z,0.90
2018-12-17T03:34:57.740Z,0.90
2018-12-17T03:37:26.560Z,1.07
2018-12-17T03:39:55.405Z,1.10
2018-12-17T03:42:24.235Z,1.20
2018-12-17T03:44:53.067Z,1.30
2018-12-17T03:47:21.619Z,1.20
2018-12-17T03:49:50.259Z,1.87
2018-12-17T03:52:18.973Z,1.23
2018-12-17T03:54:47.608Z,1.50
2018-12-17T03:57:16.261Z,1.37
2018-12-17T03:59:44.878Z,1.30
2018-12-17T04:02:13.433Z,1.20
2018-12-17T04:04:42.416Z,1.30
2018-12-17T04:07:11.375Z,1.10
2018-12-17T04:09:39.804Z,1.40
2018-12-17T04:12:08.647Z,1.10
2018-12-17T04:14:37.213Z,1.40
2018-12-17T04:17:05.823Z,1.23
2018-12-17T04:19:34.357Z,1.50
2018-12-17T04:22:03.189Z,1.40
2018-12-17T04:24:31.695Z,1.60
2018-12-17T04:27:00.184Z,1.30
2018-12-17T04:29:29.102Z,1.30
2018-12-17T04:31:57.733Z,1.50
2018-12-17T04:34:26.229Z,1.70
2018-12-17T04:36:54.969Z,1.70
2018-12-17T04:39:23.636Z,1.40
2018-12-17T04:41:52.530Z,1.57
2018-12-17T04:44:21.104Z,1.47
2018-12-17T04:46:49.651Z,1.37
2018-12-17T04:49:18.545Z,1.53
2018-12-17T04:51:47.212Z,1.50
2018-12-17T04:54:16.040Z,1.63
2018-12-17T04:56:44.676Z,1.40
2018-12-17T04:59:14.837Z,1.57
2018-12-17T05:01:44.109Z,1.67
2018-12-17T05:04:12.743Z,1.40
2018-12-17T05:06:41.379Z,1.93
2018-12-17T05:09:10.017Z,1.60
2018-12-17T05:11:38.515Z,1.53
2018-12-17T05:14:07.189Z,1.70
2018-12-17T05:16:35.828Z,1.10
2018-12-17T05:19:04.519Z,1.53
2018-12-17T05:21:33.159Z,1.50
2018-12-17T05:24:01.827Z,1.50
2018-12-17T05:26:30.463Z,1.47
2018-12-17T05:28:59.097Z,1.60
2018-12-17T05:31:27.643Z,1.70
2018-12-17T05:33:56.369Z,1.50
2018-12-17T05:36:25.005Z,1.50
2018-12-17T05:38:53.563Z,1.60
2018-12-17T05:41:22.277Z,1.60
2018-12-17T05:43:50.914Z,1.40
2018-12-17T05:46:19.458Z,1.57
2018-12-17T05:48:48.098Z,1.13
2018-12-17T05:51:16.621Z,1.30
2018-12-17T05:53:45.257Z,1.30
2018-12-17T05:56:13.893Z,1.60
2018-12-17T05:58:42.432Z,1.67
2018-12-17T06:01:11.170Z,1.30
2018-12-17T06:03:39.798Z,1.40
2018-12-17T06:06:08.629Z,1.50
2018-12-17T06:08:37.128Z,1.67
2018-12-17T06:11:05.704Z,1.13
2018-12-17T06:13:34.297Z,1.40
2018-12-17T06:16:02.978Z,1.30
2018-12-17T06:18:31.525Z,1.30
2018-12-17T06:21:00.443Z,1.73
2018-12-17T06:23:29.007Z,1.40
2018-12-17T06:25:57.717Z,1.50
2018-12-17T06:28:26.350Z,1.33
2018-12-17T06:30:54.986Z,1.50
2018-12-17T06:33:23.592Z,1.20
2018-12-17T06:35:52.256Z,1.80
2018-12-17T06:38:20.995Z,1.77
2018-12-17T06:40:49.723Z,1.63
2018-12-17T06:43:18.361Z,2.00
2018-12-17T06:45:46.994Z,1.87
2018-12-17T06:48:17.232Z,1.80
2018-12-17T06:50:46.169Z,1.90
2018-12-17T06:53:14.867Z,2.00
2018-12-17T06:55:43.473Z,2.63
2018-12-17T06:58:12.925Z,2.10
2018-12-17T07:00:41.527Z,1.87
2018-12-17T07:03:10.196Z,1.53
2018-12-17T07:05:38.836Z,2.10
2018-12-17T07:08:07.467Z,1.90
2018-12-17T07:10:36.299Z,2.20
2018-12-17T07:13:04.854Z,1.90
2018-12-17T07:15:33.569Z,2.13
2018-12-17T07:18:02.205Z,2.20
2018-12-17T07:20:30.705Z,2.00
2018-12-17T07:22:59.437Z,2.20
2018-12-17T07:25:28.112Z,2.20
2018-12-17T07:27:56.611Z,2.03
2018-12-17T07:30:25.245Z,1.80
2018-12-17T07:32:53.980Z,1.80
2018-12-17T07:35:22.653Z,1.70
2018-12-17T07:37:51.882Z,1.50
2018-12-17T07:40:20.481Z,1.80
2018-12-17T07:42:49.223Z,1.90
2018-12-17T07:45:17.787Z,1.53
2018-12-17T07:47:46.354Z,1.70
2018-12-17T07:50:14.774Z,2.40
2018-12-17T07:52:43.362Z,1.50
2018-12-17T07:55:11.934Z,2.00
2018-12-17T07:57:40.572Z,2.67
2018-12-17T08:00:11.042Z,2.57
2018-12-17T08:02:39.538Z,2.07
2018-12-17T08:05:08.449Z,1.60
2018-12-17T08:07:37.081Z,1.77
2018-12-17T08:10:06.805Z,1.70
2018-12-17T08:12:35.596Z,1.67
2018-12-17T08:15:05.585Z,1.77
2018-12-17T08:17:34.372Z,1.80
2018-12-17T08:20:03.011Z,2.57
2018-12-17T08:22:31.748Z,2.77
2018-12-17T08:25:02.245Z,1.93
2018-12-17T08:27:30.986Z,1.53
2018-12-17T08:30:03.929Z,1.60
2018-12-17T08:32:30.467Z,1.50
2018-12-17T08:34:59.114Z,1.80
2018-12-17T08:37:27.644Z,1.30
2018-12-17T08:39:56.416Z,1.60
2018-12-17T08:42:25.054Z,1.60
2018-12-17T08:44:53.855Z,1.20
2018-12-17T08:47:22.717Z,1.80
2018-12-17T08:49:51.292Z,2.00
2018-12-17T08:52:19.988Z,2.00
2018-12-17T08:54:48.884Z,2.10
2018-12-17T08:57:17.269Z,1.80
2018-12-17T08:59:45.893Z,2.40
2018-12-17T09:02:14.532Z,2.27
2018-12-17T09:04:43.165Z,1.77
2018-12-17T09:07:11.802Z,2.10
2018-12-17T09:09:40.435Z,2.20
2018-12-17T09:12:09.270Z,2.17
2018-12-17T09:14:37.902Z,1.77
2018-12-17T09:17:06.736Z,1.80
2018-12-17T09:19:35.567Z,1.63
2018-12-17T09:22:04.855Z,1.80
2018-12-17T09:24:33.530Z,1.80
2018-12-17T09:27:02.223Z,1.77
2018-12-17T09:29:30.895Z,1.80
2018-12-17T09:31:59.458Z,1.70
2018-12-17T09:34:27.969Z,1.27
2018-12-17T09:36:56.605Z,1.93
2018-12-17T09:39:25.106Z,2.13
2018-12-17T09:41:53.876Z,2.30
2018-12-17T09:44:22.513Z,1.53
2018-12-17T09:46:51.344Z,2.10
2018-12-17T09:49:20.237Z,1.80
2018-12-17T09:51:49.010Z,1.73
2018-12-17T09:54:17.561Z,2.03
2018-12-17T09:56:46.277Z,1.73
2018-12-17T09:59:14.913Z,1.90
2018-12-17T10:01:43.549Z,1.70
2018-12-17T10:04:12.184Z,2.37
2018-12-17T10:06:40.974Z,2.30
2018-12-17T10:09:09.849Z,1.67
2018-12-17T10:11:38.294Z,1.70
2018-12-17T10:14:07.100Z,1.70
2018-12-17T10:16:35.717Z,1.57
2018-12-17T10:19:04.520Z,1.30
2018-12-17T10:21:33.203Z,1.57
2018-12-17T10:24:02.021Z,1.60
2018-12-17T10:26:31.062Z,1.60
2018-12-17T10:28:59.720Z,1.53
2018-12-17T10:31:28.550Z,1.60
2018-12-17T10:33:57.188Z,1.60
2018-12-17T10:36:25.730Z,1.60
2018-12-17T10:38:54.425Z,1.73
2018-12-17T10:41:23.092Z,1.60
2018-12-17T10:43:51.658Z,1.57
2018-12-17T10:46:20.362Z,1.40
2018-12-17T10:48:49.001Z,1.73
2018-12-17T10:51:17.770Z,1.20
2018-12-17T10:53:46.486Z,1.50
2018-12-17T10:56:15.069Z,1.40
2018-12-17T10:58:43.738Z,2.03
2018-12-17T11:01:17.806Z,1.80
2018-12-17T11:03:48.545Z,1.33
2018-12-17T11:06:19.734Z,2.00
2018-12-17T11:08:50.273Z,4.90
2018-12-17T11:11:18.906Z,2.20
2018-12-17T11:13:47.739Z,1.80
2018-12-17T11:16:16.310Z,2.50
2018-12-17T11:18:45.009Z,1.70
2018-12-17T11:21:13.644Z,1.70
2018-12-17T11:23:42.834Z,2.10
2018-12-17T11:26:11.570Z,2.83
2018-12-17T11:28:40.218Z,1.83
2018-12-17T11:31:08.641Z,1.87
2018-12-17T11:33:37.152Z,2.03
2018-12-17T11:36:05.851Z,1.80
2018-12-17T11:38:34.413Z,1.60
2018-12-17T11:41:03.122Z,1.90
2018-12-17T11:43:31.672Z,2.00
2018-12-17T11:46:02.440Z,2.10
2018-12-17T11:48:31.453Z,1.60
2018-12-17T11:51:00.022Z,1.90
2018-12-17T11:53:28.657Z,2.53
2018-12-17T11:55:57.490Z,3.13
2018-12-17T11:58:26.126Z,2.63
2018-12-17T12:00:56.897Z,3.40
2018-12-17T12:03:25.757Z,3.50
2018-12-17T12:05:54.328Z,2.00
2018-12-17T12:08:23.033Z,1.50
2018-12-17T12:10:51.859Z,1.63
2018-12-17T12:13:20.494Z,3.90
2018-12-17T12:15:49.047Z,2.10
2018-12-17T12:18:17.764Z,1.70
2018-12-17T12:20:46.309Z,2.30
2018-12-17T12:23:15.037Z,3.17
2018-12-17T12:25:43.671Z,1.90
2018-12-17T12:28:12.283Z,1.77
2018-12-17T12:30:40.942Z,2.50
2018-12-17T12:33:09.769Z,2.20
2018-12-17T12:35:38.337Z,2.53
2018-12-17T12:38:06.848Z,1.97
2018-12-17T12:40:35.271Z,1.87
2018-12-17T12:43:03.921Z,1.47
2018-12-17T12:45:32.557Z,1.60
2018-12-17T12:48:01.198Z,1.70
2018-12-17T12:50:29.742Z,3.40
2018-12-17T12:52:58.467Z,1.37
2018-12-17T12:55:27.105Z,1.93
2018-12-17T12:57:55.735Z,1.93
2018-12-17T13:00:24.371Z,1.80
2018-12-17T13:02:53.006Z,2.00
2018-12-17T13:05:21.642Z,2.00
2018-12-17T13:07:50.386Z,2.03
2018-12-17T13:10:19.081Z,1.90
2018-12-17T13:12:47.744Z,1.77
2018-12-17T13:15:16.317Z,1.50
2018-12-17T13:17:45.626Z,1.60
2018-12-17T13:20:14.633Z,1.63
2018-12-17T13:22:43.272Z,1.70
2018-12-17T13:25:13.933Z,1.60
2018-12-17T13:27:42.701Z,1.70
2018-12-17T13:30:11.536Z,2.10
2018-12-17T13:32:40.169Z,2.50
2018-12-17T13:35:09.001Z,1.97
2018-12-17T13:37:37.638Z,2.00
2018-12-17T13:40:08.794Z,1.87
2018-12-17T13:42:37.403Z,1.60
2018-12-17T13:45:10.746Z,1.90
2018-12-17T13:47:39.453Z,2.03
2018-12-17T13:50:13.680Z,2.00
2018-12-17T13:52:46.072Z,1.80
2018-12-17T13:55:15.264Z,1.90
2018-12-17T13:57:44.021Z,2.70
2018-12-17T14:00:12.856Z,3.60
2018-12-17T14:02:41.491Z,2.87
2018-12-17T14:05:10.519Z,2.60
2018-12-17T14:07:39.076Z,1.80
2018-12-17T14:10:14.550Z,1.90
2018-12-17T14:12:43.186Z,1.90
2018-12-17T14:15:11.940Z,1.60
2018-12-17T14:17:42.738Z,1.57
2018-12-17T14:20:16.865Z,1.83
2018-12-17T14:22:45.515Z,1.93
2018-12-17T14:25:14.151Z,1.73
2018-12-17T14:27:42.787Z,2.03
2018-12-17T14:30:11.622Z,1.40
2018-12-17T14:32:40.175Z,1.97
2018-12-17T14:35:09.015Z,1.70
2018-12-17T14:37:39.758Z,2.30
2018-12-17T14:40:08.914Z,1.90
2018-12-17T14:42:37.554Z,1.87
2018-12-17T14:45:07.475Z,1.60
2018-12-17T14:47:36.197Z,1.80
2018-12-17T14:50:05.748Z,2.10
2018-12-17T14:52:34.412Z,1.87
2018-12-17T14:55:04.769Z,2.47
2018-12-17T14:57:35.455Z,2.23
2018-12-17T15:00:12.018Z,1.80
2018-12-17T15:02:40.591Z,1.90
2018-12-17T15:05:10.325Z,1.90
2018-12-17T15:07:39.041Z,2.50
2018-12-17T15:10:08.071Z,2.60
2018-12-17T15:12:36.624Z,2.17
2018-12-17T15:15:10.063Z,1.73
2018-12-17T15:17:38.894Z,2.10
2018-12-17T15:20:10.280Z,2.10
2018-12-17T15:22:38.783Z,2.43
2018-12-17T15:25:09.385Z,2.70
2018-12-17T15:27:38.180Z,2.70
2018-12-17T15:30:07.102Z,6.23
2018-12-17T15:32:35.689Z,6.93
2018-12-17T15:35:05.239Z,18.30
2018-12-17T15:37:33.872Z,43.23
2018-12-17T15:40:02.774Z,47.90
2018-12-17T15:42:31.340Z,30.83
2018-12-17T15:44:59.850Z,27.23
2018-12-17T15:47:28.610Z,21.23
2018-12-17T15:49:57.442Z,16.43
2018-12-17T15:52:25.949Z,12.47
2018-12-17T15:54:54.698Z,7.93
2018-12-17T15:57:23.349Z,5.73
2018-12-17T15:59:52.053Z,4.07
2018-12-17T16:02:20.797Z,4.27
2018-12-17T16:04:49.451Z,3.70
2018-12-17T16:07:18.086Z,4.13
2018-12-17T16:09:46.798Z,4.23
2018-12-17T16:12:16.644Z,4.60
2018-12-17T16:14:57.362Z,5.00
2018-12-17T16:17:26.101Z,5.33
2018-12-17T16:19:54.830Z,5.30
2018-12-17T16:22:23.661Z,5.50
2018-12-17T16:24:52.165Z,5.00
2018-12-17T16:27:20.843Z,4.03
2018-12-17T16:29:49.745Z,3.30
2018-12-17T16:32:18.401Z,2.63
2018-12-17T16:34:47.035Z,4.53
2018-12-17T16:37:15.588Z,5.03
2018-12-17T16:39:44.505Z,6.40
2018-12-17T16:42:13.122Z,5.47
2018-12-17T16:44:41.692Z,5.00
2018-12-17T16:47:10.409Z,5.60
2018-12-17T16:49:38.973Z,6.60
2018-12-17T16:52:07.640Z,8.37
2018-12-17T16:54:36.388Z,9.73
2018-12-17T16:57:05.078Z,11.30
2018-12-17T16:59:33.692Z,12.30
2018-12-17T17:02:04.605Z,12.40
2018-12-17T17:04:33.127Z,14.87
2018-12-17T17:07:02.020Z,13.60
2018-12-17T17:09:30.683Z,12.27
2018-12-17T17:11:59.322Z,14.43
2018-12-17T17:14:27.955Z,13.60
2018-12-17T17:16:56.565Z,16.63
2018-12-17T17:19:25.133Z,18.47
2018-12-17T17:21:53.921Z,14.90
2018-12-17T17:24:22.820Z,16.00
2018-12-17T17:26:51.525Z,15.40
2018-12-17T17:29:20.075Z,18.00
2018-12-17T17:31:48.768Z,13.83
2018-12-17T17:34:17.560Z,16.73
2018-12-17T17:36:46.262Z,11.93
2018-12-17T17:39:14.821Z,16.47
2018-12-17T17:41:43.535Z,25.47
2018-12-17T17:44:12.364Z,22.77
2018-12-17T17:46:41.198Z,24.07
2018-12-17T17:49:09.832Z,24.27
2018-12-17T17:51:38.468Z,27.07
2018-12-17T17:54:07.023Z,27.63
2018-12-17T17:56:35.738Z,29.07
2018-12-17T17:59:04.570Z,29.17
2018-12-17T18:01:33.125Z,28.03
2018-12-17T18:04:01.842Z,28.73
2018-12-17T18:06:30.586Z,29.30
2018-12-17T18:08:59.277Z,27.67
2018-12-17T18:11:27.946Z,27.90
2018-12-17T18:13:56.512Z,26.83
2018-12-17T18:16:25.381Z,25.40
2018-12-17T18:18:54.048Z,25.03
2018-12-17T18:21:22.943Z,23.97
2018-12-17T18:23:51.711Z,22.77
2018-12-17T18:26:20.346Z,22.23
2018-12-17T18:28:49.374Z,21.70
2018-12-17T18:31:18.009Z,22.00
2018-12-17T18:33:46.575Z,22.30
2018-12-17T18:36:15.280Z,22.27
2018-12-17T18:38:43.834Z,21.40
2018-12-17T18:41:12.553Z,20.40
2018-12-17T18:43:41.096Z,19.63
2018-12-17T18:46:09.823Z,22.33
2018-12-17T18:48:38.464Z,33.00
2018-12-17T18:51:07.070Z,37.57
2018-12-17T18:53:35.841Z,66.57
2018-12-17T18:56:04.563Z,32.33
2018-12-17T18:58:33.125Z,31.77
2018-12-17T19:01:01.833Z,29.53
2018-12-17T19:03:30.467Z,26.47
2018-12-17T19:05:59.103Z,38.40
2018-12-17T19:08:27.740Z,30.17
2018-12-17T19:10:56.569Z,27.20
2018-12-17T19:13:25.081Z,25.90
2018-12-17T19:15:53.826Z,36.17
2018-12-17T19:18:22.477Z,41.63
2018-12-17T19:20:51.028Z,31.27
2018-12-17T19:23:19.746Z,26.80
2018-12-17T19:25:48.383Z,23.67
2018-12-17T19:28:16.930Z,23.57
2018-12-17T19:30:45.652Z,29.87
2018-12-17T19:33:14.291Z,23.00
2018-12-17T19:35:43.123Z,34.37
2018-12-17T19:38:11.677Z,45.40
2018-12-17T19:40:40.390Z,50.73
2018-12-17T19:43:09.027Z,59.27
2018-12-17T19:45:37.859Z,57.70
2018-12-17T19:48:06.421Z,39.43
2018-12-17T19:50:35.324Z,27.50
2018-12-17T19:53:04.079Z,22.57
2018-12-17T19:55:33.207Z,23.53
2018-12-17T19:58:02.628Z,23.00
2018-12-17T20:00:31.180Z,25.03
2018-12-17T20:02:59.954Z,25.20
2018-12-17T20:05:28.639Z,27.30
2018-12-17T20:07:57.311Z,25.87
2018-12-17T20:10:27.307Z,25.40
2018-12-17T20:12:56.117Z,31.20
2018-12-17T20:15:24.784Z,34.23
2018-12-17T20:17:53.657Z,40.60
2018-12-17T20:20:22.418Z,43.93
2018-12-17T20:22:50.928Z,37.13
2018-12-17T20:25:19.729Z,31.93
2018-12-17T20:27:48.673Z,23.93
2018-12-17T20:30:17.338Z,22.63
2018-12-17T20:32:46.059Z,19.83
2018-12-17T20:35:14.895Z,19.17
2018-12-17T20:37:43.722Z,18.27
2018-12-17T20:40:12.946Z,22.40
2018-12-17T20:42:41.871Z,26.37
2018-12-17T20:45:10.615Z,27.70
2018-12-17T20:47:39.642Z,24.50
2018-12-17T20:50:09.259Z,16.53
2018-12-17T20:52:38.018Z,19.37
2018-12-17T20:55:06.727Z,19.57
2018-12-17T20:57:35.824Z,17.00
2018-12-17T21:00:07.236Z,17.57
2018-12-17T21:02:35.938Z,18.47
2018-12-17T21:05:05.668Z,20.33
2018-12-17T21:07:34.426Z,21.97
2018-12-17T21:10:03.256Z,20.57
2018-12-17T21:12:31.806Z,20.50
2018-12-17T21:15:01.766Z,18.03
2018-12-17T21:17:31.526Z,20.07
2018-12-17T21:20:00.207Z,22.90
2018-12-17T21:22:29.914Z,25.93
2018-12-17T21:24:58.543Z,24.07
2018-12-17T21:27:27.489Z,20.50
2018-12-17T21:29:57.233Z,27.00
2018-12-17T21:32:25.887Z,29.13
2018-12-17T21:34:54.436Z,37.83
2018-12-17T21:37:23.160Z,44.60
2018-12-17T21:39:51.989Z,38.47
2018-12-17T21:42:21.090Z,39.43
2018-12-17T21:44:50.639Z,33.20
2018-12-17T21:47:19.271Z,26.33
2018-12-17T21:49:47.910Z,24.93
2018-12-17T21:52:16.631Z,23.30
2018-12-17T21:54:45.375Z,19.50
2018-12-17T21:57:14.168Z,18.20
2018-12-17T21:59:42.844Z,23.30
2018-12-17T22:02:11.672Z,23.67
2018-12-17T22:04:40.307Z,21.77
2018-12-17T22:07:08.943Z,29.27
2018-12-17T22:09:37.501Z,31.70
2018-12-17T22:12:06.142Z,28.23
2018-12-17T22:14:34.849Z,27.83
2018-12-17T22:17:03.605Z,26.70
2018-12-17T22:19:32.245Z,27.10
2018-12-17T22:22:00.964Z,21.40
2018-12-17T22:24:29.755Z,20.50
2018-12-17T22:26:58.418Z,18.00
2018-12-17T22:29:27.041Z,17.13
2018-12-17T22:31:55.689Z,18.43
2018-12-17T22:34:24.326Z,25.50
2018-12-17T22:36:52.893Z,19.13
2018-12-17T22:39:21.595Z,18.83
2018-12-17T22:41:50.300Z,23.17
2018-12-17T22:44:19.126Z,23.00
2018-12-17T22:46:47.699Z,20.53
2018-12-17T22:49:16.531Z,20.43
2018-12-17T22:51:45.165Z,24.10
2018-12-17T22:54:13.764Z,24.87
2018-12-17T22:56:42.403Z,25.43
2018-12-17T22:59:11.198Z,27.93
2018-12-17T23:01:39.904Z,31.27
2018-12-17T23:04:08.543Z,33.97
2018-12-17T23:06:37.146Z,31.63
2018-12-17T23:09:06.659Z,21.37
2018-12-17T23:11:58.554Z,28.53
2018-12-17T23:14:44.672Z,35.30
2018-12-17T23:17:31.090Z,20.73
2018-12-17T23:19:59.656Z,21.73
2018-12-17T23:22:28.427Z,20.23
2018-12-17T23:24:57.394Z,16.43
2018-12-17T23:27:25.936Z,17.73
2018-12-17T23:29:54.463Z,17.33
2018-12-17T23:32:23.415Z,15.70
2018-12-17T23:34:52.128Z,14.37
2018-12-17T23:37:20.762Z,16.00
2018-12-17T23:39:49.867Z,19.40
2018-12-17T23:42:18.587Z,17.37
2018-12-17T23:44:47.258Z,18.07
2018-12-17T23:47:15.894Z,17.87
2018-12-17T23:49:44.529Z,16.47
2018-12-17T23:52:13.164Z,15.40
2018-12-17T23:54:41.799Z,16.40
2018-12-17T23:57:10.438Z,18.03
2018-12-17T23:59:39.069Z,20.57
